sensor_id;sensor_type;location;lat;lon;timestamp;pressure;altitude;pressure_sealevel;temperature;humidity
9784;BME280;4931;44.874;-1.092;2023-04-28T00:01:14;101134.75;;;16.18;100.00
9784;BME280;4931;44.874;-1.092;2023-04-28T00:03:40;101135.38;;;16.15;100.00
9784;BME280;4931;44.874;-1.092;2023-04-28T00:06:05;101138.25;;;16.09;100.00
9784;BME280;4931;44.874;-1.092;2023-04-28T00:08:31;101133.34;;;16.06;100.00
9784;BME280;4931;44.874;-1.092;2023-04-28T00:10:57;101133.94;;;16.03;100.00
9784;BME280;4931;44.874;-1.092;2023-04-28T00:13:23;101135.19;;;15.97;100.00
9784;BME280;4931;44.874;-1.092;2023-04-28T00:15:51;101140.28;;;15.90;100.00
9784;BME280;4931;44.874;-1.092;2023-04-28T00:18:18;101131.66;;;15.77;100.00
9784;BME280;4931;44.874;-1.092;2023-04-28T00:20:44;101140.47;;;15.80;100.00
9784;BME280;4931;44.874;-1.092;2023-04-28T00:23:09;101134.94;;;15.80;100.00
9784;BME280;4931;44.874;-1.092;2023-04-28T00:25:35;101139.38;;;15.81;100.00
9784;BME280;4931;44.874;-1.092;2023-04-28T00:28:00;101130.53;;;15.79;100.00
9784;BME280;4931;44.874;-1.092;2023-04-28T00:30:28;101131.66;;;15.77;100.00
9784;BME280;4931;44.874;-1.092;2023-04-28T00:32:54;101126.22;;;15.72;100.00
9784;BME280;4931;44.874;-1.092;2023-04-28T00:35:19;101120.78;;;15.67;100.00
9784;BME280;4931;44.874;-1.092;2023-04-28T00:37:45;101131.53;;;15.55;100.00
9784;BME280;4931;44.874;-1.092;2023-04-28T00:40:10;101134.97;;;15.47;100.00
9784;BME280;4931;44.874;-1.092;2023-04-28T00:42:36;101133.06;;;15.47;100.00
9784;BME280;4931;44.874;-1.092;2023-04-28T00:45:01;101124.44;;;15.49;100.00
9784;BME280;4931;44.874;-1.092;2023-04-28T00:47:31;101130.19;;;15.52;100.00
9784;BME280;4931;44.874;-1.092;2023-04-28T00:49:58;101122.81;;;15.48;100.00
9784;BME280;4931;44.874;-1.092;2023-04-28T00:52:25;101115.31;;;15.34;100.00
9784;BME280;4931;44.874;-1.092;2023-04-28T00:54:50;101109.88;;;15.29;100.00
9784;BME280;4931;44.874;-1.092;2023-04-28T00:57:16;101119.91;;;15.25;100.00
9784;BME280;4931;44.874;-1.092;2023-04-28T00:59:41;101113.34;;;15.21;100.00
9784;BME280;4931;44.874;-1.092;2023-04-28T01:02:07;101115.78;;;15.22;100.00
9784;BME280;4931;44.874;-1.092;2023-04-28T01:04:32;101107.44;;;15.08;100.00
9784;BME280;4931;44.874;-1.092;2023-04-28T01:06:59;101111.25;;;15.13;100.00
9784;BME280;4931;44.874;-1.092;2023-04-28T01:09:25;101118.00;;;15.06;100.00
9784;BME280;4931;44.874;-1.092;2023-04-28T01:11:51;101118.97;;;14.97;100.00
9784;BME280;4931;44.874;-1.092;2023-04-28T01:14:16;101099.94;;;14.95;100.00
9784;BME280;4931;44.874;-1.092;2023-04-28T01:16:42;101100.72;;;14.82;100.00
9784;BME280;4931;44.874;-1.092;2023-04-28T01:19:17;101099.44;;;14.74;100.00
9784;BME280;4931;44.874;-1.092;2023-04-28T01:21:44;101088.41;;;14.74;100.00
9784;BME280;4931;44.874;-1.092;2023-04-28T01:24:10;101085.94;;;14.72;100.00
9784;BME280;4931;44.874;-1.092;2023-04-28T01:26:35;101091.59;;;14.62;100.00
9784;BME280;4931;44.874;-1.092;2023-04-28T01:29:01;101089.72;;;14.57;100.00
9784;BME280;4931;44.874;-1.092;2023-04-28T01:31:26;101092.16;;;14.59;100.00
9784;BME280;4931;44.874;-1.092;2023-04-28T01:33:51;101096.28;;;14.61;100.00
9784;BME280;4931;44.874;-1.092;2023-04-28T01:36:17;101093.00;;;14.59;100.00
9784;BME280;4931;44.874;-1.092;2023-04-28T01:38:42;101102.59;;;14.67;100.00
9784;BME280;4931;44.874;-1.092;2023-04-28T01:41:08;101104.13;;;14.73;100.00
9784;BME280;4931;44.874;-1.092;2023-04-28T01:43:33;101104.91;;;14.79;100.00
9784;BME280;4931;44.874;-1.092;2023-04-28T01:45:59;101103.84;;;14.75;100.00
9784;BME280;4931;44.874;-1.092;2023-04-28T01:48:24;101111.69;;;14.68;100.00
9784;BME280;4931;44.874;-1.092;2023-04-28T01:50:50;101100.06;;;14.71;100.00
9784;BME280;4931;44.874;-1.092;2023-04-28T01:53:15;101101.97;;;14.70;100.00
9784;BME280;4931;44.874;-1.092;2023-04-28T01:55:45;101100.94;;;14.66;100.00
9784;BME280;4931;44.874;-1.092;2023-04-28T01:58:11;101101.47;;;14.68;100.00
9784;BME280;4931;44.874;-1.092;2023-04-28T02:00:36;101102.09;;;14.60;100.00
9784;BME280;4931;44.874;-1.092;2023-04-28T02:03:02;101104.34;;;14.58;100.00
9784;BME280;4931;44.874;-1.092;2023-04-28T02:05:27;101117.56;;;14.61;100.00
9784;BME280;4931;44.874;-1.092;2023-04-28T02:07:53;101108.97;;;14.63;100.00
9784;BME280;4931;44.874;-1.092;2023-04-28T02:10:18;101106.50;;;14.61;100.00
9784;BME280;4931;44.874;-1.092;2023-04-28T02:12:44;101105.97;;;14.59;100.00
9784;BME280;4931;44.874;-1.092;2023-04-28T02:15:09;101115.06;;;14.65;100.00
9784;BME280;4931;44.874;-1.092;2023-04-28T02:17:35;101115.91;;;14.60;100.00
9784;BME280;4931;44.874;-1.092;2023-04-28T02:20:00;101111.59;;;14.54;100.00
9784;BME280;4931;44.874;-1.092;2023-04-28T02:22:26;101110.75;;;14.53;100.00
9784;BME280;4931;44.874;-1.092;2023-04-28T02:24:51;101114.44;;;14.49;100.00
9784;BME280;4931;44.874;-1.092;2023-04-28T02:27:17;101116.19;;;14.58;100.00
9784;BME280;4931;44.874;-1.092;2023-04-28T02:29:43;101122.03;;;14.57;100.00
9784;BME280;4931;44.874;-1.092;2023-04-28T02:32:08;101113.22;;;14.55;100.00
9784;BME280;4931;44.874;-1.092;2023-04-28T02:34:34;101117.13;;;14.54;100.00
9784;BME280;4931;44.874;-1.092;2023-04-28T02:36:59;101124.56;;;14.53;100.00
9784;BME280;4931;44.874;-1.092;2023-04-28T02:39:25;101117.81;;;14.40;100.00
9784;BME280;4931;44.874;-1.092;2023-04-28T02:41:54;101125.00;;;14.41;100.00
9784;BME280;4931;44.874;-1.092;2023-04-28T02:44:20;101124.63;;;14.48;100.00
9784;BME280;4931;44.874;-1.092;2023-04-28T02:46:45;101118.91;;;14.44;100.00
9784;BME280;4931;44.874;-1.092;2023-04-28T02:49:11;101112.81;;;14.23;100.00
9784;BME280;4931;44.874;-1.092;2023-04-28T02:51:37;101110.94;;;14.19;100.00
9784;BME280;4931;44.874;-1.092;2023-04-28T02:54:02;101117.72;;;14.07;100.00
9784;BME280;4931;44.874;-1.092;2023-04-28T02:56:28;101108.16;;;14.00;100.00
9784;BME280;4931;44.874;-1.092;2023-04-28T02:58:54;101103.47;;;14.00;100.00
9784;BME280;4931;44.874;-1.092;2023-04-28T03:01:20;101095.41;;;14.04;100.00
9784;BME280;4931;44.874;-1.092;2023-04-28T03:03:46;101107.22;;;14.09;100.00
9784;BME280;4931;44.874;-1.092;2023-04-28T03:06:11;101101.09;;;14.13;100.00
9784;BME280;4931;44.874;-1.092;2023-04-28T03:08:37;101092.00;;;14.12;100.00
9784;BME280;4931;44.874;-1.092;2023-04-28T03:11:02;101089.19;;;14.17;100.00
9784;BME280;4931;44.874;-1.092;2023-04-28T03:13:28;101090.91;;;14.13;100.00
9784;BME280;4931;44.874;-1.092;2023-04-28T03:15:54;101092.31;;;14.10;100.00
9784;BME280;4931;44.874;-1.092;2023-04-28T03:18:20;101101.09;;;14.13;100.00
9784;BME280;4931;44.874;-1.092;2023-04-28T03:20:47;101091.09;;;14.17;100.00
9784;BME280;4931;44.874;-1.092;2023-04-28T03:23:12;101087.84;;;14.15;100.00
9784;BME280;4931;44.874;-1.092;2023-04-28T03:25:38;101086.56;;;14.07;100.00
9784;BME280;4931;44.874;-1.092;2023-04-28T03:28:03;101081.34;;;14.05;100.00
9784;BME280;4931;44.874;-1.092;2023-04-28T03:30:29;101081.88;;;13.83;100.00
9784;BME280;4931;44.874;-1.092;2023-04-28T03:32:55;101098.88;;;13.90;100.00
9784;BME280;4931;44.874;-1.092;2023-04-28T03:35:20;101094.19;;;13.91;100.00
9784;BME280;4931;44.874;-1.092;2023-04-28T03:37:46;101092.44;;;14.00;100.00
9784;BME280;4931;44.874;-1.092;2023-04-28T03:40:11;101082.50;;;13.99;100.00
9784;BME280;4931;44.874;-1.092;2023-04-28T03:42:37;101084.66;;;14.02;100.00
9784;BME280;4931;44.874;-1.092;2023-04-28T03:45:03;101083.25;;;14.05;100.00
9784;BME280;4931;44.874;-1.092;2023-04-28T03:47:29;101081.84;;;14.07;100.00
9784;BME280;4931;44.874;-1.092;2023-04-28T03:49:54;101076.88;;;14.09;100.00
9784;BME280;4931;44.874;-1.092;2023-04-28T03:52:23;101080.19;;;14.06;100.00
9784;BME280;4931;44.874;-1.092;2023-04-28T03:54:48;101083.06;;;14.01;100.00
9784;BME280;4931;44.874;-1.092;2023-04-28T03:57:14;101092.88;;;14.07;100.00
9784;BME280;4931;44.874;-1.092;2023-04-28T03:59:39;101083.50;;;14.08;100.00
9784;BME280;4931;44.874;-1.092;2023-04-28T04:02:05;101077.16;;;14.08;100.00
9784;BME280;4931;44.874;-1.092;2023-04-28T04:04:30;101076.88;;;14.09;100.00
9784;BME280;4931;44.874;-1.092;2023-04-28T04:06:56;101079.63;;;14.09;100.00
9784;BME280;4931;44.874;-1.092;2023-04-28T04:09:21;101077.38;;;14.11;100.00
9784;BME280;4931;44.874;-1.092;2023-04-28T04:11:47;101073.50;;;14.13;100.00
9784;BME280;4931;44.874;-1.092;2023-04-28T04:14:12;101078.44;;;14.16;100.00
9784;BME280;4931;44.874;-1.092;2023-04-28T04:16:38;101085.28;;;14.18;100.00
9784;BME280;4931;44.874;-1.092;2023-04-28T04:19:03;101087.78;;;14.20;100.00
9784;BME280;4931;44.874;-1.092;2023-04-28T04:21:29;101100.34;;;14.26;100.00
9784;BME280;4931;44.874;-1.092;2023-04-28T04:23:56;101097.59;;;14.26;100.00
9784;BME280;4931;44.874;-1.092;2023-04-28T04:26:21;101100.28;;;14.31;100.00
9784;BME280;4931;44.874;-1.092;2023-04-28T04:28:47;101099.72;;;14.34;100.00
9784;BME280;4931;44.874;-1.092;2023-04-28T04:31:12;101097.78;;;14.35;100.00
9784;BME280;4931;44.874;-1.092;2023-04-28T04:33:38;101093.91;;;14.36;100.00
9784;BME280;4931;44.874;-1.092;2023-04-28T04:36:04;101091.50;;;14.29;100.00
9784;BME280;4931;44.874;-1.092;2023-04-28T04:38:29;101078.88;;;14.23;100.00
9784;BME280;4931;44.874;-1.092;2023-04-28T04:40:55;101086.56;;;14.26;100.00
9784;BME280;4931;44.874;-1.092;2023-04-28T04:43:20;101091.22;;;14.31;100.00
9784;BME280;4931;44.874;-1.092;2023-04-28T04:45:46;101088.75;;;14.29;100.00
9784;BME280;4931;44.874;-1.092;2023-04-28T04:48:12;101088.75;;;14.29;100.00
9784;BME280;4931;44.874;-1.092;2023-04-28T04:50:38;101096.97;;;14.34;100.00
9784;BME280;4931;44.874;-1.092;2023-04-28T04:53:03;101086.72;;;14.35;100.00
9784;BME280;4931;44.874;-1.092;2023-04-28T04:55:29;101090.22;;;14.40;100.00
9784;BME280;4931;44.874;-1.092;2023-04-28T04:57:54;101092.19;;;14.40;100.00
9784;BME280;4931;44.874;-1.092;2023-04-28T05:00:20;101085.09;;;14.34;100.00
9784;BME280;4931;44.874;-1.092;2023-04-28T05:02:46;101088.75;;;14.29;100.00
9784;BME280;4931;44.874;-1.092;2023-04-28T05:05:11;101094.78;;;14.31;100.00
9784;BME280;4931;44.874;-1.092;2023-04-28T05:07:37;101086.44;;;14.36;100.00
9784;BME280;4931;44.874;-1.092;2023-04-28T05:10:02;101083.91;;;14.40;100.00
9784;BME280;4931;44.874;-1.092;2023-04-28T05:12:28;101077.41;;;14.31;100.00
9784;BME280;4931;44.874;-1.092;2023-04-28T05:14:54;101084.78;;;14.35;100.00
9784;BME280;4931;44.874;-1.092;2023-04-28T05:17:19;101085.56;;;14.41;100.00
9784;BME280;4931;44.874;-1.092;2023-04-28T05:19:45;101079.72;;;14.42;100.00
9784;BME280;4931;44.874;-1.092;2023-04-28T05:22:10;101080.75;;;14.47;100.00
9784;BME280;4931;44.874;-1.092;2023-04-28T05:24:36;101089.03;;;14.47;100.00
9784;BME280;4931;44.874;-1.092;2023-04-28T05:27:01;101097.25;;;14.52;100.00
9784;BME280;4931;44.874;-1.092;2023-04-28T05:29:27;101106.16;;;14.49;100.00
9784;BME280;4931;44.874;-1.092;2023-04-28T05:31:53;101101.97;;;14.51;100.00
9784;BME280;4931;44.874;-1.092;2023-04-28T05:34:18;101125.78;;;14.66;100.00
9784;BME280;4931;44.874;-1.092;2023-04-28T05:36:44;101111.44;;;14.64;100.00
9784;BME280;4931;44.874;-1.092;2023-04-28T05:39:09;101122.34;;;14.74;100.00
9784;BME280;4931;44.874;-1.092;2023-04-28T05:41:35;101125.94;;;14.75;100.00
9784;BME280;4931;44.874;-1.092;2023-04-28T05:44:04;101127.06;;;14.74;100.00
9784;BME280;4931;44.874;-1.092;2023-04-28T05:46:30;101141.09;;;14.77;100.00
9784;BME280;4931;44.874;-1.092;2023-04-28T05:48:56;101145.94;;;14.86;100.00
9784;BME280;4931;44.874;-1.092;2023-04-28T05:51:21;101149.44;;;14.91;100.00
9784;BME280;4931;44.874;-1.092;2023-04-28T05:53:47;101155.41;;;14.99;100.00
9784;BME280;4931;44.874;-1.092;2023-04-28T05:56:13;101158.91;;;15.04;100.00
9784;BME280;4931;44.874;-1.092;2023-04-28T05:58:39;101139.03;;;15.02;100.00
9784;BME280;4931;44.874;-1.092;2023-04-28T06:01:05;101146.22;;;15.03;100.00
9784;BME280;4931;44.874;-1.092;2023-04-28T06:03:30;101144.56;;;15.02;100.00
9784;BME280;4931;44.874;-1.092;2023-04-28T06:05:56;101155.03;;;15.05;100.00
9784;BME280;4931;44.874;-1.092;2023-04-28T06:08:22;101156.16;;;15.04;100.00
9784;BME280;4931;44.874;-1.092;2023-04-28T06:10:47;101138.53;;;15.00;100.00
9784;BME280;4931;44.874;-1.092;2023-04-28T06:13:12;101128.38;;;14.96;100.00
9784;BME280;4931;44.874;-1.092;2023-04-28T06:15:38;101136.88;;;14.99;100.00
9784;BME280;4931;44.874;-1.092;2023-04-28T06:18:04;101145.41;;;15.03;100.00
9784;BME280;4931;44.874;-1.092;2023-04-28T06:20:31;101152.28;;;15.05;100.00
9784;BME280;4931;44.874;-1.092;2023-04-28T06:22:57;101159.78;;;15.19;100.00
9784;BME280;4931;44.874;-1.092;2023-04-28T06:25:22;101157.97;;;15.28;100.00
9784;BME280;4931;44.874;-1.092;2023-04-28T06:27:48;101165.56;;;15.36;100.00
9784;BME280;4931;44.874;-1.092;2023-04-28T06:30:17;101162.13;;;15.44;100.00
9784;BME280;4931;44.874;-1.092;2023-04-28T06:32:45;101165.84;;;15.68;100.00
9784;BME280;4931;44.874;-1.092;2023-04-28T06:35:11;101165.91;;;15.82;100.00
9784;BME280;4931;44.874;-1.092;2023-04-28T06:37:37;101171.66;;;15.85;100.00
9784;BME280;4931;44.874;-1.092;2023-04-28T06:40:03;101168.06;;;15.85;100.00
9784;BME280;4931;44.874;-1.092;2023-04-28T06:42:28;101167.47;;;15.88;100.00
9784;BME280;4931;44.874;-1.092;2023-04-28T06:44:54;101172.91;;;15.93;100.00
9784;BME280;4931;44.874;-1.092;2023-04-28T06:47:19;101173.91;;;15.97;100.00
9784;BME280;4931;44.874;-1.092;2023-04-28T06:49:45;101166.13;;;15.99;100.00
9784;BME280;4931;44.874;-1.092;2023-04-28T06:52:14;101164.69;;;16.02;100.00
9784;BME280;4931;44.874;-1.092;2023-04-28T06:54:40;101167.56;;;16.10;100.00
9784;BME280;4931;44.874;-1.092;2023-04-28T06:57:05;101171.03;;;16.16;100.00
9784;BME280;4931;44.874;-1.092;2023-04-28T06:59:31;101163.06;;;16.15;100.00
9784;BME280;4931;44.874;-1.092;2023-04-28T07:01:56;101165.09;;;16.23;100.00
9784;BME280;4931;44.874;-1.092;2023-04-28T07:04:22;101166.09;;;16.27;100.00
9784;BME280;4931;44.874;-1.092;2023-04-28T07:06:47;101168.25;;;16.44;100.00
9784;BME280;4931;44.874;-1.092;2023-04-28T07:09:13;101156.34;;;16.57;100.00
9784;BME280;4931;44.874;-1.092;2023-04-28T07:11:40;101156.69;;;16.79;100.00
9784;BME280;4931;44.874;-1.092;2023-04-28T07:14:06;101170.09;;;16.99;100.00
9784;BME280;4931;44.874;-1.092;2023-04-28T07:16:32;101171.38;;;17.16;100.00
9784;BME280;4931;44.874;-1.092;2023-04-28T07:18:58;101163.41;;;17.00;100.00
9784;BME280;4931;44.874;-1.092;2023-04-28T07:21:23;101164.69;;;17.17;100.00
9784;BME280;4931;44.874;-1.092;2023-04-28T07:23:49;101160.47;;;17.19;100.00
9784;BME280;4931;44.874;-1.092;2023-04-28T07:26:14;101166.56;;;17.53;100.00
9784;BME280;4931;44.874;-1.092;2023-04-28T07:28:43;101173.56;;;18.04;100.00
9784;BME280;4931;44.874;-1.092;2023-04-28T07:31:09;101169.53;;;18.28;100.00
9784;BME280;4931;44.874;-1.092;2023-04-28T07:33:34;101176.13;;;18.50;100.00
9784;BME280;4931;44.874;-1.092;2023-04-28T07:36:00;101164.69;;;18.60;100.00
9784;BME280;4931;44.874;-1.092;2023-04-28T07:38:25;101172.28;;;19.03;100.00
9784;BME280;4931;44.874;-1.092;2023-04-28T07:40:51;101173.72;;;19.27;100.00
9784;BME280;4931;44.874;-1.092;2023-04-28T07:43:16;101173.78;;;19.66;100.00
9784;BME280;4931;44.874;-1.092;2023-04-28T07:45:42;101177.31;;;20.01;100.00
9784;BME280;4931;44.874;-1.092;2023-04-28T07:48:10;101181.22;;;20.39;100.00
9784;BME280;4931;44.874;-1.092;2023-04-28T07:50:35;101186.56;;;20.53;100.00
9784;BME280;4931;44.874;-1.092;2023-04-28T07:53:01;101181.75;;;20.62;100.00
9784;BME280;4931;44.874;-1.092;2023-04-28T07:55:26;101184.72;;;20.87;100.00
9784;BME280;4931;44.874;-1.092;2023-04-28T07:57:52;101175.19;;;21.09;100.00
9784;BME280;4931;44.874;-1.092;2023-04-28T08:00:17;101165.72;;;21.01;100.00
9784;BME280;4931;44.874;-1.092;2023-04-28T08:02:43;101176.81;;;20.89;100.00
9784;BME280;4931;44.874;-1.092;2023-04-28T08:05:09;101169.72;;;20.70;100.00
9784;BME280;4931;44.874;-1.092;2023-04-28T08:07:39;101170.41;;;20.88;100.00
9784;BME280;4931;44.874;-1.092;2023-04-28T08:10:05;101173.56;;;20.87;100.00
9784;BME280;4931;44.874;-1.092;2023-04-28T08:12:30;101174.72;;;21.19;100.00
9784;BME280;4931;44.874;-1.092;2023-04-28T08:14:56;101173.75;;;21.36;100.00
9784;BME280;4931;44.874;-1.092;2023-04-28T08:17:22;101169.03;;;21.83;100.00
9784;BME280;4931;44.874;-1.092;2023-04-28T08:19:47;101165.31;;;22.16;100.00
9784;BME280;4931;44.874;-1.092;2023-04-28T08:22:13;101173.97;;;22.35;100.00
9784;BME280;4931;44.874;-1.092;2023-04-28T08:24:38;101174.03;;;22.39;100.00
9784;BME280;4931;44.874;-1.092;2023-04-28T08:27:04;101169.94;;;22.61;100.00
9784;BME280;4931;44.874;-1.092;2023-04-28T08:29:31;101166.00;;;22.62;100.00
9784;BME280;4931;44.874;-1.092;2023-04-28T08:31:57;101160.97;;;22.68;100.00
9784;BME280;4931;44.874;-1.092;2023-04-28T08:34:23;101157.59;;;22.75;100.00
9784;BME280;4931;44.874;-1.092;2023-04-28T08:36:48;101158.94;;;22.93;100.00
9784;BME280;4931;44.874;-1.092;2023-04-28T08:39:14;101161.97;;;22.88;100.00
9784;BME280;4931;44.874;-1.092;2023-04-28T08:41:40;101153.69;;;22.92;100.00
9784;BME280;4931;44.874;-1.092;2023-04-28T08:44:09;101151.19;;;23.02;100.00
9784;BME280;4931;44.874;-1.092;2023-04-28T08:46:39;101147.22;;;23.03;100.00
9784;BME280;4931;44.874;-1.092;2023-04-28T08:49:16;101160.97;;;23.37;100.00
9784;BME280;4931;44.874;-1.092;2023-04-28T08:52:12;101150.53;;;23.21;100.00
9784;BME280;4931;44.874;-1.092;2023-04-28T08:54:41;101155.00;;;23.38;100.00
9784;BME280;4931;44.874;-1.092;2023-04-28T08:57:08;101148.97;;;23.36;100.00
9784;BME280;4931;44.874;-1.092;2023-04-28T08:59:37;101146.47;;;23.63;100.00
9784;BME280;4931;44.874;-1.092;2023-04-28T09:02:03;101146.72;;;23.74;100.00
9784;BME280;4931;44.874;-1.092;2023-04-28T09:04:29;101147.03;;;23.85;100.00
9784;BME280;4931;44.874;-1.092;2023-04-28T09:06:54;101147.91;;;23.57;100.00
9784;BME280;4931;44.874;-1.092;2023-04-28T09:09:28;101135.78;;;23.53;100.00
9784;BME280;4931;44.874;-1.092;2023-04-28T09:11:59;101138.34;;;23.58;100.00
9784;BME280;4931;44.874;-1.092;2023-04-28T09:14:29;101141.41;;;23.53;100.00
9784;BME280;4931;44.874;-1.092;2023-04-28T09:16:55;101144.22;;;23.85;100.00
9784;BME280;4931;44.874;-1.092;2023-04-28T09:19:21;101143.22;;;23.61;100.00
9784;BME280;4931;44.874;-1.092;2023-04-28T09:21:55;101146.56;;;23.83;100.00
9784;BME280;4931;44.874;-1.092;2023-04-28T09:24:32;101147.47;;;24.03;100.00
9784;BME280;4931;44.874;-1.092;2023-04-28T09:26:59;101143.06;;;24.18;100.00
9784;BME280;4931;44.874;-1.092;2023-04-28T09:29:27;101139.22;;;24.26;100.00
9784;BME280;4931;44.874;-1.092;2023-04-28T09:31:53;101131.94;;;24.57;100.00
9784;BME280;4931;44.874;-1.092;2023-04-28T09:34:20;101135.78;;;24.88;100.00
9784;BME280;4931;44.874;-1.092;2023-04-28T09:36:48;101132.25;;;24.72;100.00
9784;BME280;4931;44.874;-1.092;2023-04-28T09:39:27;101127.88;;;24.94;100.00
9784;BME280;4931;44.874;-1.092;2023-04-28T09:41:52;101121.81;;;25.31;100.00
9784;BME280;4931;44.874;-1.092;2023-04-28T09:44:18;101127.44;;;25.54;100.00
9784;BME280;4931;44.874;-1.092;2023-04-28T09:46:46;101125.84;;;25.53;100.00
9784;BME280;4931;44.874;-1.092;2023-04-28T09:49:12;101131.97;;;25.82;100.00
9784;BME280;4931;44.874;-1.092;2023-04-28T09:51:39;101132.81;;;25.86;100.00
9784;BME280;4931;44.874;-1.092;2023-04-28T09:54:05;101126.28;;;25.55;100.00
9784;BME280;4931;44.874;-1.092;2023-04-28T09:56:33;101126.75;;;26.07;100.00
9784;BME280;4931;44.874;-1.092;2023-04-28T09:59:00;101125.81;;;25.99;100.00
9784;BME280;4931;44.874;-1.092;2023-04-28T10:01:36;101129.19;;;26.09;100.00
9784;BME280;4931;44.874;-1.092;2023-04-28T10:04:05;101129.47;;;26.27;100.00
9784;BME280;4931;44.874;-1.092;2023-04-28T10:06:35;101128.38;;;26.35;100.00
9784;BME280;4931;44.874;-1.092;2023-04-28T10:09:01;101124.19;;;26.52;100.00
9784;BME280;4931;44.874;-1.092;2023-04-28T10:11:27;101129.34;;;26.20;100.00
9784;BME280;4931;44.874;-1.092;2023-04-28T10:13:53;101138.22;;;25.98;100.00
9784;BME280;4931;44.874;-1.092;2023-04-28T10:16:19;101133.94;;;26.05;100.00
9784;BME280;4931;44.874;-1.092;2023-04-28T10:18:45;101128.84;;;26.41;100.00
9784;BME280;4931;44.874;-1.092;2023-04-28T10:21:11;101125.50;;;26.58;100.00
9784;BME280;4931;44.874;-1.092;2023-04-28T10:24:04;101121.06;;;26.30;100.00
9784;BME280;4931;44.874;-1.092;2023-04-28T10:29:26;101110.13;;;25.72;100.00
9784;BME280;4931;44.874;-1.092;2023-04-28T10:32:20;101108.09;;;25.95;100.00
9784;BME280;4931;44.874;-1.092;2023-04-28T10:34:46;101106.44;;;25.94;100.00
9784;BME280;4931;44.874;-1.092;2023-04-28T10:37:12;101105.84;;;26.05;100.00
9784;BME280;4931;44.874;-1.092;2023-04-28T10:39:40;101100.94;;;26.01;100.00
9784;BME280;4931;44.874;-1.092;2023-04-28T10:45:09;101099.97;;;26.44;100.00
9784;BME280;4931;44.874;-1.092;2023-04-28T10:48:00;101110.19;;;26.86;100.00
9784;BME280;4931;44.874;-1.092;2023-04-28T10:50:30;101094.69;;;27.03;100.00
9784;BME280;4931;44.874;-1.092;2023-04-28T10:52:56;101114.31;;;26.96;100.00
9784;BME280;4931;44.874;-1.092;2023-04-28T10:55:34;101105.84;;;26.92;100.00
9784;BME280;4931;44.874;-1.092;2023-04-28T11:00:45;101104.25;;;26.64;100.00
9784;BME280;4931;44.874;-1.092;2023-04-28T11:11:30;101095.81;;;26.95;100.00
9784;BME280;4931;44.874;-1.092;2023-04-28T11:16:50;101088.59;;;26.97;100.00
9784;BME280;4931;44.874;-1.092;2023-04-28T11:19:20;101085.47;;;27.06;100.00
9784;BME280;4931;44.874;-1.092;2023-04-28T11:21:47;101080.47;;;26.89;100.00
9784;BME280;4931;44.874;-1.092;2023-04-28T11:24:13;101080.13;;;26.97;100.00
9784;BME280;4931;44.874;-1.092;2023-04-28T11:26:42;101077.31;;;26.97;100.00
9784;BME280;4931;44.874;-1.092;2023-04-28T11:29:09;101074.75;;;27.19;100.00
9784;BME280;4931;44.874;-1.092;2023-04-28T11:31:34;101078.34;;;27.16;100.00
9784;BME280;4931;44.874;-1.092;2023-04-28T11:34:08;101067.44;;;27.11;100.00
9784;BME280;4931;44.874;-1.092;2023-04-28T11:36:40;101064.13;;;27.02;100.00
9784;BME280;4931;44.874;-1.092;2023-04-28T11:39:08;101062.00;;;27.32;100.00
9784;BME280;4931;44.874;-1.092;2023-04-28T11:41:35;101067.50;;;27.59;100.00
9784;BME280;4931;44.874;-1.092;2023-04-28T11:44:21;101061.41;;;28.06;100.00
9784;BME280;4931;44.874;-1.092;2023-04-28T11:46:52;101064.69;;;28.15;100.00
9784;BME280;4931;44.874;-1.092;2023-04-28T11:49:23;101055.59;;;27.84;100.00
9784;BME280;4931;44.874;-1.092;2023-04-28T11:51:50;101050.84;;;27.95;100.00
9784;BME280;4931;44.874;-1.092;2023-04-28T11:54:24;101046.97;;;28.18;100.00
9784;BME280;4931;44.874;-1.092;2023-04-28T11:56:50;101045.69;;;27.53;100.00
9784;BME280;4931;44.874;-1.092;2023-04-28T11:59:17;101043.38;;;27.62;100.00
9784;BME280;4931;44.874;-1.092;2023-04-28T12:02:06;101036.56;;;27.66;100.00
9784;BME280;4931;44.874;-1.092;2023-04-28T12:07:08;101032.44;;;28.05;100.00
9784;BME280;4931;44.874;-1.092;2023-04-28T12:09:35;101034.31;;;27.90;100.00
9784;BME280;4931;44.874;-1.092;2023-04-28T12:12:08;101034.03;;;28.03;100.00
9784;BME280;4931;44.874;-1.092;2023-04-28T12:14:57;101025.34;;;28.51;100.00
9784;BME280;4931;44.874;-1.092;2023-04-28T12:17:36;101030.13;;;28.32;100.00
9784;BME280;4931;44.874;-1.092;2023-04-28T12:20:08;101026.16;;;28.41;100.00
9784;BME280;4931;44.874;-1.092;2023-04-28T12:22:44;101028.19;;;28.47;100.00
9784;BME280;4931;44.874;-1.092;2023-04-28T12:25:12;101025.25;;;28.26;100.00
9784;BME280;4931;44.874;-1.092;2023-04-28T12:27:39;101030.41;;;28.06;100.00
9784;BME280;4931;44.874;-1.092;2023-04-28T12:32:46;101029.28;;;28.21;100.00
9784;BME280;4931;44.874;-1.092;2023-04-28T12:35:12;101024.91;;;28.35;100.00
9784;BME280;4931;44.874;-1.092;2023-04-28T12:37:37;101014.69;;;28.05;100.00
9784;BME280;4931;44.874;-1.092;2023-04-28T12:40:07;101018.00;;;28.21;100.00
9784;BME280;4931;44.874;-1.092;2023-04-28T12:42:33;101016.56;;;27.86;100.00
9784;BME280;4931;44.874;-1.092;2023-04-28T12:44:59;101021.78;;;27.84;100.00
9784;BME280;4931;44.874;-1.092;2023-04-28T12:47:24;101022.69;;;27.99;100.00
9784;BME280;4931;44.874;-1.092;2023-04-28T12:49:50;101007.78;;;27.95;100.00
9784;BME280;4931;44.874;-1.092;2023-04-28T12:52:18;101007.06;;;28.05;100.00
9784;BME280;4931;44.874;-1.092;2023-04-28T12:54:43;101015.34;;;27.83;100.00
9784;BME280;4931;44.874;-1.092;2023-04-28T12:57:18;101016.13;;;27.84;100.00
9784;BME280;4931;44.874;-1.092;2023-04-28T12:59:44;101015.28;;;27.73;100.00
9784;BME280;4931;44.874;-1.092;2023-04-28T13:02:12;101005.59;;;27.70;100.00
9784;BME280;4931;44.874;-1.092;2023-04-28T13:04:39;101012.81;;;27.67;100.00
9784;BME280;4931;44.874;-1.092;2023-04-28T13:07:04;101010.03;;;27.75;100.00
9784;BME280;4931;44.874;-1.092;2023-04-28T13:09:31;101015.75;;;27.82;100.00
9784;BME280;4931;44.874;-1.092;2023-04-28T13:11:57;101002.47;;;27.86;100.00
9784;BME280;4931;44.874;-1.092;2023-04-28T13:14:24;101015.38;;;27.87;100.00